Pagina principale
METAR-TAF:

METAR-TAF

Aeroporti :

Dübendorf, Svizzera

latitudine: 47-23-55N, longitudine: 8-38-53E, altezza: 448 m

Osservazione

Il bollettino è stato emesso 33 minuti fa, alle 15:20 UTC
Vento 1 kt da direzioni variabili
Temperature 25°C
Umidità 54%
Pressione 1020 hPa
Visibilità 10 km o più

METAR: LSMD 241520Z AUTO VRB01KT 9999NDV R11/M0050N R29/P2000U NCD 25/15 Q1020 RMK

Ora: 17:53 (15:53 UTC)


TAF: mancante

Osservazioni e previsioni meteorologiche di più di 4000 aeroporti (messaggi METAR e TAF).

Le stazioni disponibili sono rappresentate dai dischi gialli e rossi sulla carta.

Puntare il mouse per vedere il nome della stazione.

Clicca sopra per visualizzare le osservazioni e previsioni meteorologiche.

Per cambiare la mappa : fare clic sui pulsanti verdi con una croce nera per ingrandire, il pulsante verde con un trattino per diminuire, o sulla freccia verde per le mappe adiacenti.


METAR-TAF: